Time;durP1;ratioP1;P1;durP2;ratioP2;P2;SDS_P1;SDS_P2;PMS_P1;PMS_P2;Temp;Humidity;BMP_temperature;BMP_pressure;BME280_temperature;BME280_humidity;BME280_pressure;Samples;Min_cycle;Max_cycle;Signal;HPM_P1;HPM_P2
2023/08/25 00:00:09;;;;;;;;;;;;;;;28.59;nan;101109.06;5055090;28;20334;-81
2023/08/25 00:02:34;;;;;;;;;;;;;;;28.58;nan;101112.19;5060406;28;20326;-81
2023/08/25 00:04:59;;;;;;;;;;;;;;;28.56;nan;101114.50;5053047;28;20093;-81
2023/08/25 00:07:25;;;;;;;;;;;;;;;28.56;nan;101115.31;5052159;28;19924;-81
2023/08/25 00:09:50;;;;;;;;;;;;;;;28.54;nan;101106.56;5053363;28;19916;-81
2023/08/25 00:12:15;;;;;;;;;;;;;;;28.50;nan;101110.41;5053508;28;20357;-81
2023/08/25 00:14:40;;;;;;;;;;;;;;;28.48;nan;101113.53;5058609;28;19962;-81
2023/08/25 00:17:08;;;;;;;;;;;;;;;28.46;nan;101120.56;5058765;28;19913;-81
2023/08/25 00:19:33;;;;;;;;;;;;;;;28.44;nan;101122.88;5059454;28;20226;-81
2023/08/25 00:21:58;;;;;;;;;;;;;;;28.38;nan;101116.88;5058798;28;20007;-81
2023/08/25 00:24:24;;;;;;;;;;;;;;;28.35;nan;101116.75;5053740;28;20451;-81
2023/08/25 00:26:49;;;;;;;;;;;;;;;28.33;nan;101119.09;5057240;28;20339;-81
2023/08/25 00:29:14;;;;;;;;;;;;;;;28.29;nan;101128.06;5055336;28;20015;-81
2023/08/25 00:31:39;;;;;;;;;;;;;;;28.27;nan;101130.41;5056045;28;20102;-81
2023/08/25 00:34:05;;;;;;;;;;;;;;;28.24;nan;101135.81;5063631;28;19916;-81
2023/08/25 00:36:30;;;;;;;;;;;;;;;28.18;nan;101126.19;5073034;28;20300;-81
2023/08/25 00:38:56;;;;;;;;;;;;;;;28.16;nan;101128.50;5058614;28;19999;-81
2023/08/25 00:41:21;;;;;;;;;;;;;;;28.13;nan;101140.25;5058713;28;19920;-81
2023/08/25 00:43:47;;;;;;;;;;;;;;;28.10;nan;101135.47;5061136;28;19989;-81
2023/08/25 00:46:12;;;;;;;;;;;;;;;28.06;nan;101131.81;5059240;28;20387;-81
2023/08/25 00:48:38;;;;;;;;;;;;;;;28.03;nan;101122.31;5060545;28;19920;-81
2023/08/25 00:51:04;;;;;;;;;;;;;;;28.00;nan;101137.59;5064934;28;19916;-81
2023/08/25 00:53:30;;;;;;;;;;;;;;;27.99;nan;101130.47;5067058;28;19921;-81
2023/08/25 00:55:56;;;;;;;;;;;;;;;27.97;nan;101124.53;5063881;28;19924;-81
2023/08/25 00:58:22;;;;;;;;;;;;;;;27.95;nan;101118.59;5065746;28;19925;-81
2023/08/25 01:00:48;;;;;;;;;;;;;;;27.93;nan;101120.91;5067513;28;19917;-81
2023/08/25 01:03:16;;;;;;;;;;;;;;;27.91;nan;101120.47;5061243;28;19916;-81
2023/08/25 01:05:42;;;;;;;;;;;;;;;27.87;nan;101113.28;5061791;28;19924;-81
2023/08/25 01:08:07;;;;;;;;;;;;;;;27.82;nan;101119.84;5064715;28;19917;-80
2023/08/25 01:10:36;;;;;;;;;;;;;;;27.79;nan;101106.78;5060697;28;19986;-81
2023/08/25 01:13:05;;;;;;;;;;;;;;;27.77;nan;101095.31;5065757;28;19942;-81
2023/08/25 01:15:32;;;;;;;;;;;;;;;27.76;nan;101104.75;5064814;28;19920;-81
2023/08/25 01:18:06;;;;;;;;;;;;;;;27.75;nan;101096.84;5063352;28;19916;-81
2023/08/25 01:20:32;;;;;;;;;;;;;;;27.72;nan;101090.09;5063064;28;19917;-81
2023/08/25 01:23:23;;;;;;;;;;;;;;;27.69;nan;101086.09;5062809;28;19998;-81
2023/08/25 01:25:50;;;;;;;;;;;;;;;27.70;nan;101081.41;5053450;28;20007;-81
2023/08/25 01:28:18;;;;;;;;;;;;;;;27.71;nan;101074.75;5062185;28;19924;-81
2023/08/25 01:30:44;;;;;;;;;;;;;;;27.73;nan;101071.63;5066518;28;19939;-81
2023/08/25 01:33:10;;;;;;;;;;;;;;;27.75;nan;101078.38;5058956;28;20396;-80
2023/08/25 01:35:41;;;;;;;;;;;;;;;27.76;nan;101079.16;5065913;28;20571;-81
2023/08/25 01:38:22;;;;;;;;;;;;;;;27.78;nan;101074.09;5062346;28;20261;-81
2023/08/25 01:40:51;;;;;;;;;;;;;;;27.77;nan;101067.00;5063503;28;20415;-81
2023/08/25 01:43:18;;;;;;;;;;;;;;;27.76;nan;101065.41;5061459;28;19917;-80
2023/08/25 01:45:45;;;;;;;;;;;;;;;27.76;nan;101055.19;5062885;28;19916;-81
2023/08/25 01:48:11;;;;;;;;;;;;;;;27.75;nan;101045.34;5064233;28;19923;-81
2023/08/25 01:50:38;;;;;;;;;;;;;;;27.74;nan;101042.94;5058760;28;19920;-81
2023/08/25 01:53:03;;;;;;;;;;;;;;;27.68;nan;101034.16;5062449;28;19949;-81
2023/08/25 01:55:29;;;;;;;;;;;;;;;27.67;nan;101013.31;5064993;28;19920;-80
2023/08/25 01:57:54;;;;;;;;;;;;;;;27.66;nan;101012.50;5064168;28;19927;-81
2023/08/25 02:00:19;;;;;;;;;;;;;;;27.66;nan;101011.72;5063611;28;19924;-81
2023/08/25 02:02:45;;;;;;;;;;;;;;;27.67;nan;101005.84;5065525;28;19932;-81
2023/08/25 02:05:10;;;;;;;;;;;;;;;27.68;nan;101009.38;5059945;28;19921;-80
2023/08/25 02:07:35;;;;;;;;;;;;;;;27.68;nan;101001.13;5065295;28;19916;-81
2023/08/25 02:10:01;;;;;;;;;;;;;;;27.67;nan;100996.78;5062039;28;19932;-81
2023/08/25 02:12:26;;;;;;;;;;;;;;;27.63;nan;100979.38;5062998;28;19928;-81
2023/08/25 02:14:51;;;;;;;;;;;;;;;27.61;nan;100976.16;5064347;28;20276;-81
2023/08/25 02:17:16;;;;;;;;;;;;;;;27.61;nan;100970.63;5061007;28;19916;-81
2023/08/25 02:19:42;;;;;;;;;;;;;;;27.61;nan;100967.88;5063710;28;19923;-81
2023/08/25 02:22:07;;;;;;;;;;;;;;;27.58;nan;100960.34;5060110;28;19923;-81
2023/08/25 02:24:32;;;;;;;;;;;;;;;27.58;nan;100952.09;5058001;28;20420;-81
2023/08/25 02:26:58;;;;;;;;;;;;;;;27.57;nan;100943.03;5057406;28;19916;-81
2023/08/25 02:29:24;;;;;;;;;;;;;;;27.54;nan;100943.75;5059774;28;20014;-80
2023/08/25 02:31:49;;;;;;;;;;;;;;;27.55;nan;100928.03;5063294;28;19924;-81
2023/08/25 02:34:15;;;;;;;;;;;;;;;27.56;nan;100927.69;5059551;28;19974;-81
2023/08/25 02:36:40;;;;;;;;;;;;;;;27.57;nan;100929.28;5061048;28;19967;-81
2023/08/25 02:39:05;;;;;;;;;;;;;;;27.58;nan;100925.38;5062207;28;20346;-81
2023/08/25 02:41:31;;;;;;;;;;;;;;;27.60;nan;100914.00;5063434;28;19917;-81
2023/08/25 02:43:56;;;;;;;;;;;;;;;27.63;nan;100918.81;5060443;28;19921;-81
2023/08/25 02:46:21;;;;;;;;;;;;;;;27.65;nan;100916.53;5064056;28;19920;-81
2023/08/25 02:48:46;;;;;;;;;;;;;;;27.65;nan;100908.28;5061821;28;19920;-81
2023/08/25 02:51:12;;;;;;;;;;;;;;;27.67;nan;100903.19;5064070;28;19916;-81
2023/08/25 02:53:37;;;;;;;;;;;;;;;27.66;nan;100896.91;5054839;28;19927;-80
2023/08/25 02:56:02;;;;;;;;;;;;;;;27.67;nan;100892.19;5056425;28;19921;-82
2023/08/25 02:58:28;;;;;;;;;;;;;;;27.65;nan;100891.75;5059987;28;19966;-81
2023/08/25 03:00:54;;;;;;;;;;;;;;;27.65;nan;100887.03;5058989;28;19920;-81
2023/08/25 03:03:19;;;;;;;;;;;;;;;27.67;nan;100894.94;5058538;28;19965;-80
2023/08/25 03:05:44;;;;;;;;;;;;;;;27.66;nan;100896.09;5058691;28;19927;-81
2023/08/25 03:08:12;;;;;;;;;;;;;;;27.65;nan;100900.00;5063342;28;19928;-81
2023/08/25 03:10:38;;;;;;;;;;;;;;;27.64;nan;100898.38;5056741;28;20221;-80
2023/08/25 03:13:03;;;;;;;;;;;;;;;27.62;nan;100884.97;5058459;28;20003;-81
2023/08/25 03:15:28;;;;;;;;;;;;;;;27.59;nan;100887.63;5060672;28;19963;-81
2023/08/25 03:17:54;;;;;;;;;;;;;;;27.54;nan;100882.41;5064835;28;20070;-81
2023/08/25 03:20:19;;;;;;;;;;;;;;;27.51;nan;100877.66;5059001;28;20580;-81
2023/08/25 03:22:44;;;;;;;;;;;;;;;27.47;nan;100871.25;5058566;28;19924;-81
2023/08/25 03:25:10;;;;;;;;;;;;;;;27.42;nan;100866.81;5059045;28;19920;-81
2023/08/25 03:27:36;;;;;;;;;;;;;;;27.39;nan;100862.84;5059813;28;19924;-81
2023/08/25 03:30:02;;;;;;;;;;;;;;;27.39;nan;100851.03;5056467;28;19931;-81
2023/08/25 03:32:28;;;;;;;;;;;;;;;27.40;nan;100853.44;5053647;28;19925;-81
2023/08/25 03:34:53;;;;;;;;;;;;;;;27.43;nan;100848.34;5052851;28;20349;-81
2023/08/25 03:37:18;;;;;;;;;;;;;;;27.44;nan;100844.44;5053305;28;20553;-81
2023/08/25 03:39:43;;;;;;;;;;;;;;;27.44;nan;100837.00;5063059;28;20288;-81
2023/08/25 03:42:09;;;;;;;;;;;;;;;27.46;nan;100833.88;5059840;28;19916;-81
2023/08/25 03:44:34;;;;;;;;;;;;;;;27.47;nan;100839.03;5053139;28;20021;-81
2023/08/25 03:46:59;;;;;;;;;;;;;;;27.50;nan;100826.53;5061868;28;19931;-81
2023/08/25 03:49:28;;;;;;;;;;;;;;;27.51;nan;100828.09;5055705;28;20129;-81
2023/08/25 03:51:53;;;;;;;;;;;;;;;27.50;nan;100821.81;5060332;28;20358;-81
2023/08/25 03:54:18;;;;;;;;;;;;;;;27.49;nan;100831.22;5062456;28;19928;-81
2023/08/25 03:56:44;;;;;;;;;;;;;;;27.49;nan;100833.19;5058597;28;19917;-81
2023/08/25 03:59:09;;;;;;;;;;;;;;;27.48;nan;100839.84;5058073;28;20376;-81
2023/08/25 04:01:34;;;;;;;;;;;;;;;27.50;nan;100843.03;5060840;28;19920;-81
2023/08/25 04:04:01;;;;;;;;;;;;;;;27.53;nan;100854.09;5057592;28;19922;-81
2023/08/25 04:06:26;;;;;;;;;;;;;;;27.56;nan;100841.56;5058504;28;20420;-81
2023/08/25 04:08:52;;;;;;;;;;;;;;;27.59;nan;100849.09;5059264;28;19920;-81
2023/08/25 04:11:17;;;;;;;;;;;;;;;27.59;nan;100849.09;5060578;28;20392;-81
2023/08/25 04:13:42;;;;;;;;;;;;;;;27.61;nan;100858.59;5059543;28;20094;-81
2023/08/25 04:16:07;;;;;;;;;;;;;;;27.62;nan;100862.94;5056528;28;19917;-81
2023/08/25 04:18:33;;;;;;;;;;;;;;;27.61;nan;100858.59;5059082;28;20277;-81
2023/08/25 04:20:58;;;;;;;;;;;;;;;27.55;nan;100860.03;5060502;28;19961;-81
2023/08/25 04:23:25;;;;;;;;;;;;;;;27.52;nan;100846.22;5064973;28;19928;-81
2023/08/25 04:25:51;;;;;;;;;;;;;;;27.51;nan;100839.13;5060649;28;20017;-81
2023/08/25 04:28:16;;;;;;;;;;;;;;;27.51;nan;100842.66;5065611;28;19970;-81
2023/08/25 04:30:42;;;;;;;;;;;;;;;27.51;nan;100842.66;5065300;28;20036;-82
2023/08/25 04:33:07;;;;;;;;;;;;;;;27.53;nan;100847.81;5059715;28;20369;-82
2023/08/25 04:35:32;;;;;;;;;;;;;;;27.51;nan;100842.66;5065330;28;19916;-82
2023/08/25 04:37:58;;;;;;;;;;;;;;;27.49;nan;100841.44;5063123;28;19917;-81
2023/08/25 04:40:23;;;;;;;;;;;;;;;27.49;nan;100849.69;5063733;28;19925;-81
2023/08/25 04:42:48;;;;;;;;;;;;;;;27.50;nan;100843.03;5060813;28;19931;-81
2023/08/25 04:45:14;;;;;;;;;;;;;;;27.51;nan;100836.38;5061897;28;19923;-81
2023/08/25 04:47:40;;;;;;;;;;;;;;;27.54;nan;100838.38;5058690;28;19951;-81
2023/08/25 04:50:07;;;;;;;;;;;;;;;27.56;nan;100836.06;5065375;28;19931;-81
2023/08/25 04:52:34;;;;;;;;;;;;;;;27.55;nan;100838.03;5063751;28;20289;-81
2023/08/25 04:54:59;;;;;;;;;;;;;;;27.57;nan;100837.66;5062843;28;19917;-81
2023/08/25 04:57:24;;;;;;;;;;;;;;;27.57;nan;100837.66;5059756;28;19925;-81
2023/08/25 04:59:50;;;;;;;;;;;;;;;27.61;nan;100841.28;5062164;28;19930;-81
2023/08/25 05:02:17;;;;;;;;;;;;;;;27.61;nan;100844.84;5059329;28;20011;-81
2023/08/25 05:04:42;;;;;;;;;;;;;;;27.63;nan;100844.50;5063307;28;19916;-81
2023/08/25 05:07:07;;;;;;;;;;;;;;;27.66;nan;100847.34;5061580;28;19916;-82
2023/08/25 05:09:33;;;;;;;;;;;;;;;27.66;nan;100841.84;5063450;28;19916;-81
2023/08/25 05:11:58;;;;;;;;;;;;;;;27.66;nan;100843.81;5062461;28;19950;-81
2023/08/25 05:14:23;;;;;;;;;;;;;;;27.66;nan;100846.56;5061733;28;20406;-81
2023/08/25 05:16:48;;;;;;;;;;;;;;;27.70;nan;100841.91;5060320;28;19920;-81
2023/08/25 05:19:14;;;;;;;;;;;;;;;27.75;nan;100849.88;5061323;28;19917;-81
2023/08/25 05:21:39;;;;;;;;;;;;;;;27.80;nan;100846.81;5061133;28;19916;-80
2023/08/25 05:24:15;;;;;;;;;;;;;;;27.89;nan;100849.38;5062755;28;20407;-81
2023/08/25 05:26:40;;;;;;;;;;;;;;;27.98;nan;100847.97;5056181;28;19924;-81
2023/08/25 05:29:05;;;;;;;;;;;;;;;28.10;nan;100847.03;5065503;28;20341;-81
2023/08/25 05:31:31;;;;;;;;;;;;;;;28.18;nan;100840.50;5061540;28;20502;-81
2023/08/25 05:33:56;;;;;;;;;;;;;;;28.22;nan;100838.63;5061350;28;19935;-81
2023/08/25 05:36:21;;;;;;;;;;;;;;;28.25;nan;100837.09;5060447;28;19916;-81
2023/08/25 05:38:47;;;;;;;;;;;;;;;28.31;nan;100832.88;5066168;28;20601;-80
2023/08/25 05:41:12;;;;;;;;;;;;;;;28.38;nan;100830.28;5061065;28;19981;-80
2023/08/25 05:43:37;;;;;;;;;;;;;;;28.45;nan;100827.63;5057512;28;19928;-81
2023/08/25 05:46:02;;;;;;;;;;;;;;;28.51;nan;100831.66;5064257;28;20384;-81
2023/08/25 05:48:28;;;;;;;;;;;;;;;28.58;nan;100831.81;5057674;28;20011;-81
2023/08/25 05:50:53;;;;;;;;;;;;;;;28.62;nan;100842.09;5058879;28;19920;-81
2023/08/25 05:53:18;;;;;;;;;;;;;;;28.68;nan;100841.41;5057979;28;19986;-81
2023/08/25 05:55:44;;;;;;;;;;;;;;;28.75;nan;100836.03;5058309;28;19940;-81
2023/08/25 05:58:11;;;;;;;;;;;;;;;28.82;nan;100836.13;5060227;28;19917;-81
2023/08/25 06:00:38;;;;;;;;;;;;;;;28.87;nan;100838.59;5060210;28;19920;-80
2023/08/25 06:03:04;;;;;;;;;;;;;;;28.92;nan;100831.19;5060026;28;19999;-81
2023/08/25 06:05:29;;;;;;;;;;;;;;;28.97;nan;100837.19;5057459;28;20058;-81
2023/08/25 06:07:55;;;;;;;;;;;;;;;29.04;nan;100834.53;5057364;28;19924;-81
2023/08/25 06:10:20;;;;;;;;;;;;;;;29.11;nan;100831.88;5057580;28;19916;-81
2023/08/25 06:12:46;;;;;;;;;;;;;;;29.14;nan;100831.13;5058991;28;19920;-80
2023/08/25 06:15:11;;;;;;;;;;;;;;;29.23;nan;100832.81;5058894;28;19923;-81
2023/08/25 06:17:36;;;;;;;;;;;;;;;29.28;nan;100833.31;5059760;28;19920;-81
2023/08/25 06:20:03;;;;;;;;;;;;;;;29.35;nan;100836.16;5061123;28;20344;-80
2023/08/25 06:22:28;;;;;;;;;;;;;;;29.40;nan;100827.56;5061588;28;20438;-81
2023/08/25 06:24:54;;;;;;;;;;;;;;;29.45;nan;100824.53;5055560;28;19929;-81
2023/08/25 06:27:19;;;;;;;;;;;;;;;29.50;nan;100820.63;5059976;28;20311;-81
2023/08/25 06:29:45;;;;;;;;;;;;;;;29.59;nan;100812.84;5057816;28;20020;-81
2023/08/25 06:32:14;;;;;;;;;;;;;;;29.72;nan;100807.88;5056418;28;20423;-81
2023/08/25 06:34:39;;;;;;;;;;;;;;;29.84;nan;100804.06;5055270;28;19921;-81
2023/08/25 06:37:04;;;;;;;;;;;;;;;29.95;nan;100804.97;5057717;28;20459;-81
2023/08/25 06:39:30;;;;;;;;;;;;;;;30.07;nan;100805.53;5059358;28;19973;-80
2023/08/25 06:41:55;;;;;;;;;;;;;;;30.12;nan;100803.59;5055994;28;20304;-81
2023/08/25 06:44:20;;;;;;;;;;;;;;;30.11;nan;100811.09;5055913;28;19916;-81
2023/08/25 06:46:46;;;;;;;;;;;;;;;30.15;nan;100806.38;5060439;28;19920;-81
2023/08/25 06:49:11;;;;;;;;;;;;;;;30.24;nan;100801.38;5061997;28;20074;-81
2023/08/25 06:51:37;;;;;;;;;;;;;;;30.35;nan;100809.75;5060354;28;20368;-81
2023/08/25 06:54:03;;;;;;;;;;;;;;;30.47;nan;100800.38;5057683;28;19932;-81
2023/08/25 06:56:28;;;;;;;;;;;;;;;30.57;nan;100799.69;5064260;28;19989;-81
2023/08/25 06:58:53;;;;;;;;;;;;;;;30.67;nan;100802.53;5063119;28;20434;-81
2023/08/25 07:01:19;;;;;;;;;;;;;;;30.78;nan;100807.38;5059434;28;20369;-81
2023/08/25 07:03:44;;;;;;;;;;;;;;;30.84;nan;100803.84;5062832;28;20392;-81
2023/08/25 07:06:10;;;;;;;;;;;;;;;30.89;nan;100800.75;5062445;28;19931;-81
2023/08/25 07:08:36;;;;;;;;;;;;;;;30.92;nan;100804.72;5059928;28;19986;-81
2023/08/25 07:11:01;;;;;;;;;;;;;;;31.01;nan;100790.53;5058944;28;20354;-81
2023/08/25 07:13:27;;;;;;;;;;;;;;;31.12;nan;100796.94;5062386;28;19924;-81
2023/08/25 07:15:52;;;;;;;;;;;;;;;31.23;nan;100806.09;5062359;28;20360;-81
2023/08/25 07:18:17;;;;;;;;;;;;;;;31.30;nan;100806.16;5053826;28;20438;-81
2023/08/25 07:20:43;;;;;;;;;;;;;;;31.38;nan;100810.53;5059155;28;19928;-80
2023/08/25 07:23:08;;;;;;;;;;;;;;;31.53;nan;100812.19;5059168;28;20348;-81
2023/08/25 07:25:33;;;;;;;;;;;;;;;31.58;nan;100814.56;5058998;28;19935;-81
2023/08/25 07:27:59;;;;;;;;;;;;;;;31.66;nan;100807.09;5052216;28;19928;-81
2023/08/25 07:30:24;;;;;;;;;;;;;;;31.77;nan;100809.94;5056529;28;20286;-81
2023/08/25 07:32:50;;;;;;;;;;;;;;;31.91;nan;100806.41;5059852;28;19920;-81
2023/08/25 07:35:16;;;;;;;;;;;;;;;32.00;nan;100801.31;5056346;28;20039;-80
2023/08/25 07:37:41;;;;;;;;;;;;;;;32.12;nan;100800.91;5060644;28;20007;-80
2023/08/25 07:40:07;;;;;;;;;;;;;;;32.15;nan;100797.38;5060466;28;20003;-81
2023/08/25 07:42:32;;;;;;;;;;;;;;;32.23;nan;100798.97;5055614;28;19956;-81
2023/08/25 07:44:57;;;;;;;;;;;;;;;32.25;nan;100798.56;5061652;28;19916;-81
2023/08/25 07:47:23;;;;;;;;;;;;;;;32.25;nan;100802.13;5056498;28;19971;-80
2023/08/25 07:49:48;;;;;;;;;;;;;;;32.33;nan;100803.75;5063011;28;19931;-81
2023/08/25 07:52:13;;;;;;;;;;;;;;;32.40;nan;100808.50;5058985;28;19955;-81
2023/08/25 07:54:39;;;;;;;;;;;;;;;32.46;nan;100807.72;5062983;28;19967;-80
2023/08/25 07:57:05;;;;;;;;;;;;;;;32.55;nan;100804.56;5067589;28;20415;-81
2023/08/25 07:59:30;;;;;;;;;;;;;;;32.65;nan;100803.75;5067086;28;19923;-81
2023/08/25 08:01:55;;;;;;;;;;;;;;;32.70;nan;100806.13;5065130;28;19946;-80
2023/08/25 08:04:20;;;;;;;;;;;;;;;32.83;nan;100803.75;5067313;28;19956;-81
2023/08/25 08:06:47;;;;;;;;;;;;;;;32.94;nan;100807.31;5065167;28;20320;-81
2023/08/25 08:09:12;;;;;;;;;;;;;;;33.03;nan;100810.47;5064173;28;21256;-81
2023/08/25 08:11:38;;;;;;;;;;;;;;;33.12;nan;100810.06;5067744;28;19924;-81
2023/08/25 08:14:04;;;;;;;;;;;;;;;33.29;nan;100809.22;5065406;28;19931;-81
2023/08/25 08:16:30;;;;;;;;;;;;;;;33.38;nan;100811.59;5067369;28;20300;-81
2023/08/25 08:18:55;;;;;;;;;;;;;;;33.45;nan;100810.78;5066539;28;19928;-80
2023/08/25 08:21:21;;;;;;;;;;;;;;;33.52;nan;100810.75;5066416;28;19965;-81
2023/08/25 08:23:46;;;;;;;;;;;;;;;33.61;nan;100817.47;5062703;28;19962;-81
2023/08/25 08:26:13;;;;;;;;;;;;;;;33.78;nan;100812.22;5063577;28;20076;-80
2023/08/25 08:28:38;;;;;;;;;;;;;;;33.93;nan;100820.13;5063954;28;20494;-80
2023/08/25 08:31:05;;;;;;;;;;;;;;;34.07;nan;100819.22;5059401;28;20011;-80
2023/08/25 08:33:33;;;;;;;;;;;;;;;34.30;nan;100820.69;5063852;28;20300;-80
2023/08/25 08:35:58;;;;;;;;;;;;;;;34.48;nan;100832.50;5071589;28;19916;-81
2023/08/25 08:38:24;;;;;;;;;;;;;;;34.64;nan;100829.16;5067276;28;19932;-81
2023/08/25 08:40:50;;;;;;;;;;;;;;;34.76;nan;100837.00;5066460;28;19928;-81
2023/08/25 08:43:17;;;;;;;;;;;;;;;34.84;nan;100833.75;5068049;28;20422;-81
2023/08/25 08:45:43;;;;;;;;;;;;;;;34.98;nan;100830.06;5070474;28;19916;-81
2023/08/25 08:48:09;;;;;;;;;;;;;;;35.13;nan;100845.41;5066479;28;20319;-81
2023/08/25 08:50:35;;;;;;;;;;;;;;;35.29;nan;100830.13;5063327;28;19916;-80
2023/08/25 08:53:00;;;;;;;;;;;;;;;35.45;nan;100835.94;5062476;28;20300;-80
2023/08/25 08:55:26;;;;;;;;;;;;;;;35.61;nan;100832.56;5064732;28;19931;-81
2023/08/25 08:57:52;;;;;;;;;;;;;;;35.71;nan;100835.22;5064009;28;19920;-81
2023/08/25 09:00:20;;;;;;;;;;;;;;;35.78;nan;100828.75;5056999;28;19917;-81
2023/08/25 09:02:49;;;;;;;;;;;;;;;35.85;nan;100823.13;5063939;28;19924;-81
2023/08/25 09:05:15;;;;;;;;;;;;;;;35.95;nan;100821.41;5071484;28;19927;-81
2023/08/25 09:07:40;;;;;;;;;;;;;;;36.10;nan;100825.56;5070932;28;19955;-81
2023/08/25 09:10:07;;;;;;;;;;;;;;;36.19;nan;100813.88;5063102;28;19978;-81
2023/08/25 09:12:34;;;;;;;;;;;;;;;36.33;nan;100813.69;5060304;28;19917;-81
2023/08/25 09:15:00;;;;;;;;;;;;;;;36.44;nan;100816.28;5059740;28;19921;-81
2023/08/25 09:17:25;;;;;;;;;;;;;;;36.54;nan;100807.72;5061139;28;19931;-81
2023/08/25 09:19:50;;;;;;;;;;;;;;;36.71;nan;100816.22;5064801;28;19947;-81
2023/08/25 09:22:17;;;;;;;;;;;;;;;36.83;nan;100815.66;5063969;28;20424;-81
2023/08/25 09:24:43;;;;;;;;;;;;;;;36.95;nan;100817.81;5059970;28;19924;-81
2023/08/25 09:27:24;;;;;;;;;;;;;;;37.01;nan;100816.09;5061589;28;19916;-81
2023/08/25 09:30:04;;;;;;;;;;;;;;;37.09;nan;100816.75;5058668;28;19924;-81
2023/08/25 09:32:30;;;;;;;;;;;;;;;37.26;nan;100826.00;5060904;28;19921;-81
2023/08/25 09:34:55;;;;;;;;;;;;;;;37.37;nan;100821.03;5061039;28;20347;-81
2023/08/25 09:37:21;;;;;;;;;;;;;;;37.44;nan;100823.66;5061228;28;19982;-81
2023/08/25 09:39:46;;;;;;;;;;;;;;;37.50;nan;100825.50;5058883;28;20324;-81
2023/08/25 09:42:12;;;;;;;;;;;;;;;37.64;nan;100832.03;5058525;28;20376;-81
2023/08/25 09:44:40;;;;;;;;;;;;;;;37.79;nan;100834.13;5062090;28;19964;-81
2023/08/25 09:47:08;;;;;;;;;;;;;;;37.91;nan;100838.25;5059719;28;20389;-81
2023/08/25 09:49:37;;;;;;;;;;;;;;;37.96;nan;100836.97;5058948;28;19970;-81
2023/08/25 09:52:04;;;;;;;;;;;;;;;38.04;nan;100830.75;5058821;28;19917;-81
2023/08/25 09:54:29;;;;;;;;;;;;;;;38.07;nan;100827.09;5059778;28;19924;-81
2023/08/25 09:56:55;;;;;;;;;;;;;;;38.09;nan;100823.88;5059495;28;19931;-81
2023/08/25 09:59:21;;;;;;;;;;;;;;;38.15;nan;100815.75;5058078;28;19917;-81
2023/08/25 10:01:46;;;;;;;;;;;;;;;38.24;nan;100815.94;5056386;28;19963;-81
2023/08/25 10:04:13;;;;;;;;;;;;;;;38.34;nan;100817.69;5060854;28;20590;-81
2023/08/25 10:06:38;;;;;;;;;;;;;;;38.27;nan;100812.28;5058298;28;19925;-81
2023/08/25 10:09:04;;;;;;;;;;;;;;;38.27;nan;100818.66;5061310;28;20281;-81
2023/08/25 10:11:59;;;;;;;;;;;;;;;38.26;nan;100819.09;5059521;28;19927;-81
2023/08/25 10:14:26;;;;;;;;;;;;;;;38.27;nan;100823.47;5043814;28;19932;-81
2023/08/25 10:16:52;;;;;;;;;;;;;;;38.26;nan;100821.91;5054621;28;19920;-81
2023/08/25 10:19:26;;;;;;;;;;;;;;;38.25;nan;100825.94;5060231;28;19985;-81
2023/08/25 10:21:53;;;;;;;;;;;;;;;38.28;nan;100822.25;5056370;28;19927;-81
2023/08/25 10:24:19;;;;;;;;;;;;;;;38.31;nan;100824.19;5053509;28;19942;-81
2023/08/25 10:26:45;;;;;;;;;;;;;;;38.33;nan;100818.91;5058039;28;19916;-81
2023/08/25 10:29:12;;;;;;;;;;;;;;;38.43;nan;100825.50;5058096;28;20333;-81
2023/08/25 10:31:58;;;;;;;;;;;;;;;38.49;nan;100818.13;5056724;28;19964;-81
2023/08/25 10:34:33;;;;;;;;;;;;;;;38.55;nan;100825.56;5056750;28;19925;-82
2023/08/25 10:37:06;;;;;;;;;;;;;;;38.52;nan;100826.44;5061840;28;19916;-81
2023/08/25 10:39:46;;;;;;;;;;;;;;;38.44;nan;100827.84;5061637;28;20286;-81
2023/08/25 10:42:12;;;;;;;;;;;;;;;38.47;nan;100832.56;5053668;28;20400;-81
2023/08/25 10:44:41;;;;;;;;;;;;;;;38.59;nan;100828.25;5062067;28;19951;-82
2023/08/25 10:47:06;;;;;;;;;;;;;;;38.59;nan;100831.84;5052099;28;19951;-81
2023/08/25 10:49:37;;;;;;;;;;;;;;;38.57;nan;100831.50;5056102;28;19955;-82
2023/08/25 10:52:11;;;;;;;;;;;;;;;38.62;nan;100833.00;5053783;28;19917;-81
2023/08/25 10:54:39;;;;;;;;;;;;;;;38.55;nan;100835.97;5053410;28;19950;-81
2023/08/25 10:57:25;;;;;;;;;;;;;;;38.52;nan;100834.84;5061239;28;19916;-82
2023/08/25 10:59:54;;;;;;;;;;;;;;;38.49;nan;100835.72;5051089;28;19931;-81
2023/08/25 11:02:38;;;;;;;;;;;;;;;38.48;nan;100839.75;5054383;28;19920;-82
2023/08/25 11:05:22;;;;;;;;;;;;;;;38.39;nan;100854.34;5054617;28;19928;-83
2023/08/25 11:07:47;;;;;;;;;;;;;;;38.21;nan;100847.59;5054062;28;19917;-82
2023/08/25 11:10:13;;;;;;;;;;;;;;;38.20;nan;100848.81;5049199;28;19978;-82
2023/08/25 11:12:40;;;;;;;;;;;;;;;38.26;nan;100844.28;5050879;28;20328;-82
2023/08/25 11:15:09;;;;;;;;;;;;;;;38.35;nan;100841.66;5051246;28;20298;-83
2023/08/25 11:17:34;;;;;;;;;;;;;;;38.46;nan;100841.41;5053200;28;20376;-82
2023/08/25 11:20:00;;;;;;;;;;;;;;;38.56;nan;100843.94;5052365;28;19920;-83
2023/08/25 11:22:25;;;;;;;;;;;;;;;38.73;nan;100843.94;5054540;28;20289;-83
2023/08/25 11:24:50;;;;;;;;;;;;;;;38.73;nan;100841.16;5054414;28;19929;-83
2023/08/25 11:27:16;;;;;;;;;;;;;;;38.77;nan;100841.81;5048932;28;19978;-83
2023/08/25 11:29:45;;;;;;;;;;;;;;;38.80;nan;100838.97;5059182;28;19922;-83
2023/08/25 11:32:13;;;;;;;;;;;;;;;38.93;nan;100839.78;5060654;28;19974;-83
2023/08/25 11:34:39;;;;;;;;;;;;;;;39.08;nan;100845.03;5054575;28;20019;-83
2023/08/25 11:37:04;;;;;;;;;;;;;;;39.22;nan;100831.44;5055566;28;20455;-82
2023/08/25 11:39:29;;;;;;;;;;;;;;;39.30;nan;100837.59;5054971;28;19917;-83
2023/08/25 11:41:55;;;;;;;;;;;;;;;39.35;nan;100834.28;5049674;28;20459;-83
2023/08/25 11:44:24;;;;;;;;;;;;;;;39.35;nan;100831.47;5057145;28;20431;-83
2023/08/25 11:46:51;;;;;;;;;;;;;;;39.33;nan;100819.16;5058539;28;20032;-83
2023/08/25 11:49:17;;;;;;;;;;;;;;;39.45;nan;100815.56;5063535;28;19939;-83
2023/08/25 11:51:42;;;;;;;;;;;;;;;39.48;nan;100828.69;5062937;28;20290;-84
2023/08/25 11:54:07;;;;;;;;;;;;;;;39.48;nan;100821.06;5058719;28;19932;-83
2023/08/25 11:56:33;;;;;;;;;;;;;;;39.46;nan;100815.13;5053498;28;19920;-83
2023/08/25 11:58:58;;;;;;;;;;;;;;;39.52;nan;100826.63;5055813;28;19920;-83
2023/08/25 12:01:29;;;;;;;;;;;;;;;39.54;nan;100829.75;5058038;28;19928;-82
2023/08/25 12:03:57;;;;;;;;;;;;;;;39.60;nan;100821.56;5055809;28;19921;-82
2023/08/25 12:06:22;;;;;;;;;;;;;;;39.48;nan;100820.28;5057155;28;20304;-83
2023/08/25 12:08:48;;;;;;;;;;;;;;;39.36;nan;100821.06;5055562;28;19917;-83
2023/08/25 12:11:13;;;;;;;;;;;;;;;39.34;nan;100815.09;5062057;28;19920;-81
2023/08/25 12:13:43;;;;;;;;;;;;;;;39.41;nan;100818.47;5060054;28;19925;-81
2023/08/25 12:16:13;;;;;;;;;;;;;;;39.51;nan;100817.38;5058982;28;20627;-81
2023/08/25 12:18:38;;;;;;;;;;;;;;;39.52;nan;100821.00;5055766;28;20071;-82
2023/08/25 12:21:05;;;;;;;;;;;;;;;39.55;nan;100823.69;5055429;28;19921;-82
2023/08/25 12:23:37;;;;;;;;;;;;;;;39.56;nan;100813.28;5060298;28;19917;-83
2023/08/25 12:26:08;;;;;;;;;;;;;;;39.64;nan;100816.63;5056632;28;19916;-82
2023/08/25 12:28:34;;;;;;;;;;;;;;;39.71;nan;100816.44;5059680;28;19943;-82
2023/08/25 12:31:00;;;;;;;;;;;;;;;39.74;nan;100827.53;5052830;28;19921;-83
2023/08/25 12:33:26;;;;;;;;;;;;;;;39.64;nan;100820.22;5051298;28;20354;-83
2023/08/25 12:35:51;;;;;;;;;;;;;;;39.55;nan;100818.09;5056261;28;19924;-83
2023/08/25 12:38:16;;;;;;;;;;;;;;;39.48;nan;100814.66;5060529;28;20399;-83
2023/08/25 12:40:42;;;;;;;;;;;;;;;39.44;nan;100814.78;5049091;28;19924;-83
2023/08/25 12:43:07;;;;;;;;;;;;;;;39.43;nan;100809.63;5049848;28;19981;-82
2023/08/25 12:45:33;;;;;;;;;;;;;;;39.41;nan;100798.84;5060815;28;19965;-82
2023/08/25 12:47:59;;;;;;;;;;;;;;;39.34;nan;100809.50;5056057;28;19920;-82
2023/08/25 12:50:24;;;;;;;;;;;;;;;39.33;nan;100807.94;5054989;28;20019;-82
2023/08/25 12:52:49;;;;;;;;;;;;;;;39.37;nan;100808.59;5052813;28;19928;-82